Time;durP1;ratioP1;P1;durP2;ratioP2;P2;SDS_P1;SDS_P2;PMS_P1;PMS_P2;Temp;Humidity;BMP_temperature;BMP_pressure;BME280_temperature;BME280_humidity;BME280_pressure;Samples;Min_cycle;Max_cycle;Signal;HPM_P1;HPM_P2
2023/12/07 00:01:07;;;;;;;229.30;129.15;;;;;;;-0.82;100.00;99659.75;4958116;28;20030;-84
2023/12/07 00:03:32;;;;;;;177.60;92.90;;;;;;;-0.66;100.00;99693.00;4958079;28;20129;-85
2023/12/07 00:05:57;;;;;;;185.32;99.53;;;;;;;-0.86;100.00;99662.31;4975595;28;20062;-85
2023/12/07 00:08:23;;;;;;;179.88;90.90;;;;;;;-0.73;100.00;99684.47;4975493;28;20023;-85
2023/12/07 00:10:48;;;;;;;176.77;89.55;;;;;;;-0.66;100.00;99706.66;4975734;28;20388;-85
2023/12/07 00:13:14;;;;;;;180.38;93.75;;;;;;;-0.74;100.00;99699.84;4957673;28;20400;-85
2023/12/07 00:15:39;;;;;;;168.90;86.25;;;;;;;-0.88;100.00;99677.69;4975283;28;20035;-85
2023/12/07 00:18:04;;;;;;;167.88;87.88;;;;;;;-0.95;100.00;99681.06;4958023;28;20038;-85
2023/12/07 00:20:30;;;;;;;161.68;84.43;;;;;;;-0.76;100.00;99713.47;4974993;28;20033;-84
2023/12/07 00:22:55;;;;;;;160.00;84.65;;;;;;;-0.75;100.00;99719.44;4975255;28;20023;-85
2023/12/07 00:25:21;;;;;;;165.77;86.25;;;;;;;-0.96;100.00;99683.66;4974819;28;20035;-85
2023/12/07 00:27:47;;;;;;;162.13;82.47;;;;;;;-0.71;100.00;99730.53;4957648;28;20582;-85
2023/12/07 00:30:13;;;;;;;159.10;82.22;;;;;;;-0.92;100.00;99695.56;4975258;28;20035;-85
2023/12/07 00:32:40;;;;;;;151.40;81.75;;;;;;;-0.72;100.00;99724.53;4957474;28;20503;-84
2023/12/07 00:35:05;;;;;;;162.77;85.95;;;;;;;-0.70;100.00;99710.06;4957524;28;20053;-84
2023/12/07 00:37:31;;;;;;;168.25;84.78;;;;;;;-0.79;100.00;99700.69;4974373;28;20043;-85
2023/12/07 00:39:56;;;;;;;152.88;78.28;;;;;;;-0.77;100.00;99714.31;4975240;28;20041;-85
2023/12/07 00:42:22;;;;;;;164.93;84.65;;;;;;;-0.98;100.00;99681.06;4974510;28;20043;-85
2023/12/07 00:44:47;;;;;;;163.00;84.65;;;;;;;-0.97;100.00;99676.81;4974956;28;20041;-85
2023/12/07 00:47:12;;;;;;;168.45;85.57;;;;;;;-0.81;100.00;99702.38;4974699;28;20054;-85
2023/12/07 00:49:40;;;;;;;161.13;84.55;;;;;;;-0.74;100.00;99695.56;4974719;28;20061;-85
2023/12/07 00:52:05;;;;;;;169.23;87.25;;;;;;;-0.71;100.00;99707.53;4974587;28;20448;-85
2023/12/07 00:54:31;;;;;;;159.15;80.85;;;;;;;-0.58;100.00;99727.13;4956947;28;20015;-85
2023/12/07 00:56:57;;;;;;;155.38;80.22;;;;;;;-0.86;100.00;99683.63;4973146;28;20101;-85
2023/12/07 00:59:23;;;;;;;157.48;81.07;;;;;;;-0.57;100.00;99733.94;4956873;28;20439;-84
2023/12/07 01:01:48;;;;;;;156.80;79.05;;;;;;;-0.64;100.00;99737.34;4973525;28;20030;-85
2023/12/07 01:04:14;;;;;;;156.40;80.18;;;;;;;-0.85;100.00;99694.72;4957197;28;20031;-85
2023/12/07 01:06:39;;;;;;;156.88;78.47;;;;;;;-0.87;100.00;99697.28;4956760;28;20117;-85
2023/12/07 01:09:04;;;;;;;157.50;80.70;;;;;;;-0.71;100.00;99722.88;4956831;28;20037;-85
2023/12/07 01:11:30;;;;;;;150.70;77.38;;;;;;;-0.93;100.00;99686.19;4973949;28;20070;-85
2023/12/07 01:13:55;;;;;;;162.15;82.18;;;;;;;-1.09;100.00;99668.28;4974348;28;20031;-85
2023/12/07 01:16:21;;;;;;;168.23;82.32;;;;;;;-0.92;100.00;99698.97;4957000;28;20031;-85
2023/12/07 01:18:46;;;;;;;160.05;77.47;;;;;;;-1.01;100.00;99693.88;4952257;29;20050;-85
2023/12/07 01:21:12;;;;;;;153.27;79.60;;;;;;;-1.08;100.00;99698.09;4952466;29;20040;-85
2023/12/07 01:23:37;;;;;;;148.43;75.40;;;;;;;-0.66;100.00;99754.41;4936021;29;20587;-85
2023/12/07 01:26:03;;;;;;;157.52;80.00;;;;;;;-0.67;100.00;99751.00;4936306;29;20035;-85
2023/12/07 01:28:28;;;;;;;146.60;76.85;;;;;;;-0.68;100.00;99740.75;4952090;29;20031;-85
2023/12/07 01:30:54;;;;;;;151.98;78.40;;;;;;;-0.72;100.00;99721.97;4936110;29;20031;-85
2023/12/07 01:33:20;;;;;;;153.73;79.13;;;;;;;-0.51;100.00;99752.72;4951779;29;20067;-85
2023/12/07 01:35:45;;;;;;;151.05;76.38;;;;;;;-0.42;100.00;99745.84;4951885;29;20039;-85
2023/12/07 01:38:11;;;;;;;148.55;78.10;;;;;;;-0.38;100.00;99748.44;4935858;29;20047;-85
2023/12/07 01:40:36;;;;;;;158.50;79.05;;;;;;;-0.40;100.00;99750.13;4951744;29;20529;-85
2023/12/07 01:43:01;;;;;;;147.75;77.38;;;;;;;-0.34;100.00;99760.38;4952585;29;20039;-85
2023/12/07 01:45:27;;;;;;;154.30;78.93;;;;;;;-0.76;100.00;99703.25;4951907;29;20050;-85
2023/12/07 01:47:54;;;;;;;155.55;79.15;;;;;;;-0.52;100.00;99740.75;4952649;29;20539;-85
2023/12/07 01:50:23;;;;;;;160.05;80.53;;;;;;;-0.57;100.00;99741.59;4968077;28;20500;-85
2023/12/07 01:52:52;;;;;;;146.93;76.05;;;;;;;-0.69;100.00;99724.53;4951753;29;20039;-85
2023/12/07 01:55:18;;;;;;;147.93;77.60;;;;;;;-0.50;100.00;99776.59;4932400;29;20046;-85
2023/12/07 01:57:44;;;;;;;157.10;79.88;;;;;;;-0.60;100.00;99770.59;4932853;29;20044;-85
2023/12/07 02:00:12;;;;;;;151.90;76.53;;;;;;;-0.59;100.00;99772.31;4932456;29;20039;-85
2023/12/07 02:02:38;;;;;;;154.77;80.63;;;;;;;-0.65;100.00;99763.78;4932243;29;20043;-84
2023/12/07 02:05:05;;;;;;;150.82;79.72;;;;;;;-0.68;100.00;99761.22;4932487;29;20127;-85
2023/12/07 02:07:31;;;;;;;151.52;78.22;;;;;;;-0.82;100.00;99745.84;4932232;29;20046;-84
2023/12/07 02:09:58;;;;;;;163.00;81.57;;;;;;;-0.73;100.00;99766.31;4932451;29;20044;-85
2023/12/07 02:12:24;;;;;;;158.50;81.10;;;;;;;-0.76;100.00;99768.88;4932246;29;20075;-85
2023/12/07 02:14:50;;;;;;;161.07;76.65;;;;;;;-0.74;100.00;99774.84;4932534;29;20183;-85
2023/12/07 02:17:24;;;;;;;154.77;76.90;;;;;;;-0.79;100.00;99766.31;4932034;29;20036;-85
2023/12/07 02:19:49;;;;;;;153.10;78.65;;;;;;;-0.63;100.00;99785.06;4932183;29;20024;-84
2023/12/07 02:22:39;;;;;;;160.90;76.78;;;;;;;-0.62;100.00;99790.22;4932268;29;20505;-85
2023/12/07 02:25:09;;;;;;;149.10;75.90;;;;;;;-0.58;100.00;99797.03;4932585;29;20500;-85
2023/12/07 02:27:36;;;;;;;149.18;75.00;;;;;;;-0.80;100.00;99745.03;4973087;28;20030;-85
2023/12/07 02:30:02;;;;;;;149.43;76.97;;;;;;;-0.70;100.00;99768.03;4973063;28;20058;-85
2023/12/07 02:32:28;;;;;;;154.60;76.07;;;;;;;-0.65;100.00;99774.00;4955374;28;20065;-85
2023/12/07 02:34:54;;;;;;;155.02;78.70;;;;;;;-0.64;100.00;99780.81;4971807;28;20035;-85
2023/12/07 02:37:21;;;;;;;158.85;81.45;;;;;;;-0.69;100.00;99777.41;4955348;28;20404;-85
2023/12/07 02:39:48;;;;;;;152.50;78.32;;;;;;;-0.86;100.00;99754.38;4972844;28;20031;-85
2023/12/07 02:42:14;;;;;;;151.85;76.25;;;;;;;-0.73;100.00;99781.66;4973028;28;20054;-85
2023/12/07 02:44:40;;;;;;;149.35;73.53;;;;;;;-0.98;100.00;99739.88;4972742;28;20447;-84
2023/12/07 02:47:05;;;;;;;157.85;78.22;;;;;;;-0.96;100.00;99747.56;4955286;28;20030;-85
2023/12/07 02:49:31;;;;;;;160.88;77.80;;;;;;;-0.67;100.00;99781.69;4955130;28;20062;-85
2023/12/07 02:51:56;;;;;;;142.80;73.57;;;;;;;-0.71;100.00;99751.00;4955388;28;20034;-85
2023/12/07 02:54:22;;;;;;;160.75;82.22;;;;;;;-0.54;100.00;99778.28;4955550;28;20038;-85
2023/12/07 02:56:48;;;;;;;144.50;75.82;;;;;;;-0.41;100.00;99785.97;4972701;28;20349;-84
2023/12/07 02:59:13;;;;;;;156.07;78.55;;;;;;;-0.34;100.00;99791.09;4972631;28;20115;-85
2023/12/07 03:01:39;;;;;;;154.38;77.22;;;;;;;-0.17;100.00;99798.75;4955090;28;20026;-85
2023/12/07 03:04:04;;;;;;;151.18;77.32;;;;;;;-0.23;100.00;99780.81;4972895;28;20062;-85
2023/12/07 03:06:29;;;;;;;154.82;77.38;;;;;;;-0.28;100.00;99762.06;4950701;29;20126;-85
2023/12/07 03:08:55;;;;;;;145.93;74.20;;;;;;;-0.09;100.00;99780.81;4934944;29;20039;-85
2023/12/07 03:11:21;;;;;;;144.65;77.38;;;;;;;-0.13;100.00;99768.84;4934718;29;20063;-84
2023/12/07 03:13:46;;;;;;;146.65;78.60;;;;;;;0.01;100.00;99800.44;4950614;29;20043;-85
2023/12/07 03:16:12;;;;;;;154.73;80.22;;;;;;;-0.20;100.00;99759.50;4934853;29;20107;-85
2023/12/07 03:18:37;;;;;;;152.02;76.10;;;;;;;-0.01;100.00;99797.84;4950627;29;20038;-85
2023/12/07 03:21:03;;;;;;;155.77;80.03;;;;;;;-0.13;100.00;99790.19;4950826;29;20452;-85
2023/12/07 03:23:28;;;;;;;145.50;76.47;;;;;;;-0.32;100.00;99756.09;4950615;29;20046;-85
2023/12/07 03:25:53;;;;;;;148.77;78.72;;;;;;;-0.01;100.00;99805.53;4914449;29;20134;-85
2023/12/07 03:28:19;;;;;;;149.70;76.47;;;;;;;-0.01;100.00;99802.97;4916414;29;20036;-85
2023/12/07 03:30:44;;;;;;;162.02;79.60;;;;;;;-0.29;100.00;99775.72;4916057;29;20123;-85
2023/12/07 03:33:09;;;;;;;156.20;76.20;;;;;;;-0.13;100.00;99809.81;4916067;29;20508;-84
2023/12/07 03:35:35;;;;;;;148.02;76.63;;;;;;;-0.08;100.00;99810.69;4900128;29;20498;-85
2023/12/07 03:38:00;;;;;;;154.85;76.53;;;;;;;-0.10;100.00;99794.47;4916278;29;20123;-85
2023/12/07 03:40:26;;;;;;;151.75;75.53;;;;;;;-0.14;100.00;99787.63;4916108;29;20126;-84
2023/12/07 03:42:51;;;;;;;151.63;74.85;;;;;;;0.04;100.00;99822.59;4915929;29;20039;-85
2023/12/07 03:45:16;;;;;;;147.02;75.50;;;;;;;-0.11;100.00;99795.31;4915859;29;20060;-85
2023/12/07 03:47:42;;;;;;;145.02;73.82;;;;;;;0.11;100.00;99829.44;4915781;29;20115;-85
2023/12/07 03:50:07;;;;;;;139.73;74.90;;;;;;;0.09;100.00;99828.59;4915888;29;20042;-85
2023/12/07 03:52:33;;;;;;;152.55;78.97;;;;;;;-0.01;100.00;99812.38;4915901;29;20036;-84
2023/12/07 03:54:58;;;;;;;153.35;78.38;;;;;;;0.18;100.00;99851.63;4916028;29;20036;-84
2023/12/07 03:57:23;;;;;;;161.88;83.35;;;;;;;0.03;100.00;99834.56;4946811;28;20086;-85
2023/12/07 03:59:48;;;;;;;161.07;80.10;;;;;;;-0.28;100.00;99791.06;4975547;28;20072;-84
2023/12/07 04:02:14;;;;;;;157.55;80.38;;;;;;;-0.10;100.00;99843.09;4975571;28;20051;-84
2023/12/07 04:04:39;;;;;;;158.77;80.10;;;;;;;-0.28;100.00;99839.69;4976059;28;20042;-85
2023/12/07 04:07:04;;;;;;;149.90;77.70;;;;;;;-0.47;100.00;99802.16;4974364;28;20027;-84
2023/12/07 04:09:30;;;;;;;156.65;79.18;;;;;;;-0.18;100.00;99853.34;4975913;28;20046;-84
2023/12/07 04:11:56;;;;;;;154.65;79.10;;;;;;;-0.11;100.00;99852.50;4975310;28;20030;-84
2023/12/07 04:14:21;;;;;;;154.88;78.10;;;;;;;-0.29;100.00;99798.75;4975579;28;20544;-84
2023/12/07 04:16:47;;;;;;;159.15;80.78;;;;;;;-0.05;100.00;99843.94;4975369;28;20506;-84
2023/12/07 04:19:12;;;;;;;156.45;79.35;;;;;;;0.01;100.00;99846.53;4958012;28;20118;-84
2023/12/07 04:21:38;;;;;;;154.65;79.63;;;;;;;-0.19;100.00;99809.84;4958047;28;20031;-84
2023/12/07 04:24:04;;;;;;;159.88;80.95;;;;;;;-0.05;100.00;99826.03;4975711;28;20026;-84
2023/12/07 04:26:29;;;;;;;158.88;79.80;;;;;;;-0.11;100.00;99808.97;4975491;28;20119;-84
2023/12/07 04:28:54;;;;;;;160.52;82.60;;;;;;;-0.34;100.00;99787.66;4974464;28;20073;-84
2023/12/07 04:31:21;;;;;;;165.48;81.75;;;;;;;-0.42;100.00;99807.25;4975859;28;20031;-84
2023/12/07 04:33:46;;;;;;;164.63;82.45;;;;;;;-0.33;100.00;99845.69;4958784;28;20388;-84
2023/12/07 04:36:12;;;;;;;164.10;84.05;;;;;;;-0.48;100.00;99814.94;4974670;28;20023;-89
2023/12/07 04:38:37;;;;;;;175.63;86.43;;;;;;;-0.52;100.00;99832.84;4958488;28;20049;-85
2023/12/07 04:41:03;;;;;;;166.52;84.30;;;;;;;-0.39;100.00;99855.88;4984104;28;20023;-85
2023/12/07 04:43:28;;;;;;;181.15;88.05;;;;;;;-0.57;100.00;99841.38;4987042;28;20093;-85
2023/12/07 04:45:54;;;;;;;177.70;88.75;;;;;;;-0.61;100.00;99844.78;4975523;28;20518;-85
2023/12/07 04:48:19;;;;;;;182.20;86.10;;;;;;;-0.46;100.00;99867.84;4993818;28;20015;-84
2023/12/07 04:50:44;;;;;;;172.20;87.43;;;;;;;-0.58;100.00;99857.59;4990492;28;20038;-85
2023/12/07 04:53:10;;;;;;;207.73;94.93;;;;;;;-0.71;100.00;99837.97;4993566;28;20019;-84
2023/12/07 04:55:35;;;;;;;199.98;94.80;;;;;;;-0.58;100.00;99870.38;4980370;28;20050;-85
2023/12/07 04:58:01;;;;;;;181.20;90.18;;;;;;;-0.59;100.00;99868.66;4974664;28;20444;-85
2023/12/07 05:00:27;;;;;;;192.82;88.90;;;;;;;-0.68;100.00;99868.63;4973343;28;20113;-85
2023/12/07 05:02:52;;;;;;;179.07;88.53;;;;;;;-1.03;100.00;99814.00;4973011;28;20030;-85
2023/12/07 05:05:18;;;;;;;160.50;80.85;;;;;;;-0.55;100.00;99885.72;4957089;28;20061;-85
2023/12/07 05:07:43;;;;;;;168.85;83.03;;;;;;;-0.61;100.00;99868.66;4974594;28;20038;-85
2023/12/07 05:10:09;;;;;;;169.77;84.80;;;;;;;-0.53;100.00;99866.97;4973216;28;20500;-85
2023/12/07 05:12:35;;;;;;;167.38;82.82;;;;;;;-0.56;100.00;99848.19;4956932;28;20031;-85
2023/12/07 05:15:02;;;;;;;178.40;88.80;;;;;;;-0.56;100.00;99854.16;4974055;28;20030;-85
2023/12/07 05:17:27;;;;;;;174.23;86.97;;;;;;;-0.28;100.00;99875.53;4974013;28;20068;-85
2023/12/07 05:19:52;;;;;;;171.23;85.35;;;;;;;-0.21;100.00;99878.06;4956747;28;20445;-85
2023/12/07 05:22:18;;;;;;;178.63;88.03;;;;;;;-0.58;100.00;99830.28;4974218;28;20117;-85
2023/12/07 05:24:43;;;;;;;163.82;85.80;;;;;;;-0.42;100.00;99853.31;4974002;28;20093;-85
2023/12/07 05:27:08;;;;;;;165.38;86.40;;;;;;;-0.37;100.00;99856.75;4956583;28;20019;-85
2023/12/07 05:29:34;;;;;;;167.98;83.47;;;;;;;-0.31;100.00;99864.44;4956739;28;20053;-85
2023/12/07 05:31:59;;;;;;;169.30;86.03;;;;;;;-0.31;100.00;99857.59;4973595;28;20118;-85
2023/12/07 05:34:25;;;;;;;161.95;84.97;;;;;;;0.03;100.00;99910.53;4972882;28;20030;-85
2023/12/07 05:36:50;;;;;;;160.25;83.25;;;;;;;0.09;100.00;99906.28;4973500;28;20488;-85
2023/12/07 05:39:17;;;;;;;162.18;82.07;;;;;;;0.02;100.00;99893.47;4956278;28;20030;-85
2023/12/07 05:41:43;;;;;;;160.98;84.55;;;;;;;-0.09;100.00;99868.69;4956310;28;20034;-85
2023/12/07 05:44:08;;;;;;;167.27;86.82;;;;;;;0.23;100.00;99917.34;4972494;28;20027;-85
2023/12/07 05:46:35;;;;;;;166.48;85.60;;;;;;;0.09;100.00;99901.16;4973965;28;20134;-85
2023/12/07 05:49:00;;;;;;;170.43;82.78;;;;;;;0.03;100.00;99890.91;4973036;28;20031;-85
2023/12/07 05:51:26;;;;;;;161.23;81.85;;;;;;;0.04;100.00;99889.19;4973820;28;20045;-85
2023/12/07 05:53:52;;;;;;;168.35;85.60;;;;;;;0.11;100.00;99919.91;4973385;28;20531;-84
2023/12/07 05:56:21;;;;;;;164.55;84.80;;;;;;;0.09;100.00;99919.06;4956281;28;20031;-84
2023/12/07 05:58:50;;;;;;;175.48;86.72;;;;;;;0.17;100.00;99926.75;4955849;28;20031;-84
2023/12/07 06:01:18;;;;;;;163.68;83.97;;;;;;;0.09;100.00;99903.72;4972149;28;20033;-84
2023/12/07 06:03:44;;;;;;;181.60;84.72;;;;;;;0.13;100.00;99925.06;4955971;28;20019;-84
2023/12/07 06:06:11;;;;;;;186.68;90.43;;;;;;;0.12;100.00;99919.06;4973616;28;20045;-84
2023/12/07 06:08:37;;;;;;;187.55;89.22;;;;;;;0.27;100.00;99945.53;4973497;28;20022;-84
2023/12/07 06:11:02;;;;;;;173.43;86.35;;;;;;;-0.12;100.00;99875.56;4972093;28;20034;-84
2023/12/07 06:13:28;;;;;;;193.75;92.57;;;;;;;-0.01;100.00;99900.28;4973318;28;20023;-84
2023/12/07 06:15:53;;;;;;;181.00;91.20;;;;;;;0.15;100.00;99937.00;4972346;28;20030;-83
2023/12/07 06:18:18;;;;;;;183.15;90.38;;;;;;;0.17;100.00;99932.75;4973640;28;20038;-84
2023/12/07 06:20:43;;;;;;;189.05;92.85;;;;;;;0.20;100.00;99932.72;4973184;28;20527;-84
2023/12/07 06:23:12;;;;;;;196.40;93.30;;;;;;;0.12;100.00;99931.88;4973222;28;20483;-84
2023/12/07 06:25:38;;;;;;;199.52;91.82;;;;;;;0.08;100.00;99942.97;4972114;28;20034;-84
2023/12/07 06:28:04;;;;;;;199.60;91.90;;;;;;;0.13;100.00;99933.59;4972950;28;20022;-84
2023/12/07 06:30:30;;;;;;;199.75;93.20;;;;;;;-0.25;100.00;99879.81;4956103;28;20494;-84
2023/12/07 06:32:55;;;;;;;186.18;89.15;;;;;;;0.14;100.00;99948.09;4955592;28;20034;-85
2023/12/07 06:35:21;;;;;;;201.05;95.70;;;;;;;0.20;100.00;99958.34;4973011;28;20480;-85
2023/12/07 06:37:46;;;;;;;203.77;94.60;;;;;;;-0.02;100.00;99920.78;4955511;28;20082;-85
2023/12/07 06:40:12;;;;;;;209.02;94.13;;;;;;;0.23;100.00;99965.19;4955740;28;20031;-85
2023/12/07 06:42:38;;;;;;;209.80;96.72;;;;;;;0.02;100.00;99934.44;4972805;28;20041;-85
2023/12/07 06:45:03;;;;;;;219.20;96.25;;;;;;;0.15;100.00;99964.31;4972990;28;20038;-85
2023/12/07 06:47:29;;;;;;;224.38;100.40;;;;;;;0.04;100.00;99954.06;4972540;28;20086;-85
2023/12/07 06:49:58;;;;;;;211.00;99.35;;;;;;;0.12;100.00;99960.03;4955286;28;20118;-84
2023/12/07 06:52:23;;;;;;;237.52;103.20;;;;;;;-0.15;100.00;99916.50;4972904;28;20085;-84
2023/12/07 06:54:49;;;;;;;222.50;102.63;;;;;;;-0.23;100.00;99915.63;4972603;28;20479;-85
2023/12/07 06:57:14;;;;;;;234.95;104.03;;;;;;;0.05;100.00;99966.03;4972852;28;20119;-84
2023/12/07 06:59:40;;;;;;;234.85;100.60;;;;;;;-0.15;100.00;99922.47;4973302;28;20082;-84
2023/12/07 07:02:06;;;;;;;231.10;103.57;;;;;;;0.17;100.00;99976.28;4959262;28;20122;-84
2023/12/07 07:04:32;;;;;;;209.88;95.47;;;;;;;0.18;100.00;99965.19;4975544;28;20133;-84
2023/12/07 07:06:57;;;;;;;231.98;103.03;;;;;;;0.29;100.00;99974.56;4976580;28;20029;-84
2023/12/07 07:09:23;;;;;;;235.60;101.93;;;;;;;0.02;100.00;99930.16;4976369;28;20026;-84
2023/12/07 07:11:48;;;;;;;239.65;101.70;;;;;;;0.21;100.00;99957.50;4976307;28;20061;-84
2023/12/07 07:14:14;;;;;;;212.82;98.45;;;;;;;0.18;100.00;99949.81;4976693;28;20030;-84
2023/12/07 07:16:39;;;;;;;232.95;102.70;;;;;;;0.20;100.00;99953.22;4976620;28;20121;-84
2023/12/07 07:19:05;;;;;;;227.18;95.95;;;;;;;0.30;100.00;99966.91;4976189;28;20771;-84
2023/12/07 07:21:31;;;;;;;246.02;100.97;;;;;;;0.31;100.00;99965.19;4959068;28;20498;-84
2023/12/07 07:23:56;;;;;;;228.82;101.18;;;;;;;0.11;100.00;99932.72;4976740;28;20034;-84
2023/12/07 07:26:22;;;;;;;234.23;106.38;;;;;;;0.18;100.00;99942.13;4959009;28;20548;-84
2023/12/07 07:28:47;;;;;;;237.55;102.22;;;;;;;0.37;100.00;99972.84;4976426;28;20031;-83
2023/12/07 07:31:13;;;;;;;253.57;106.68;;;;;;;0.34;100.00;99973.72;4974978;28;20030;-84
2023/12/07 07:33:38;;;;;;;241.60;105.65;;;;;;;0.41;100.00;99984.81;4976170;28;20077;-84
2023/12/07 07:36:04;;;;;;;242.95;103.65;;;;;;;0.43;100.00;99985.69;4976135;28;20042;-83
2023/12/07 07:38:29;;;;;;;211.38;96.68;;;;;;;0.40;100.00;99978.00;4958562;28;20416;-84
2023/12/07 07:40:54;;;;;;;244.70;107.07;;;;;;;0.33;100.00;99968.59;4953822;29;20131;-83
2023/12/07 07:43:20;;;;;;;242.90;106.93;;;;;;;0.32;100.00;99966.88;4970177;28;20139;-84
2023/12/07 07:45:45;;;;;;;219.93;102.20;;;;;;;0.06;100.00;99931.03;4954435;29;20039;-84
2023/12/07 07:48:12;;;;;;;228.13;99.85;;;;;;;0.36;100.00;99973.72;4954251;29;20043;-83
2023/12/07 07:50:37;;;;;;;216.75;102.82;;;;;;;0.45;100.00;99987.38;4954121;29;20068;-83
2023/12/07 07:53:03;;;;;;;220.40;97.90;;;;;;;0.34;100.00;99965.16;4953943;29;20403;-84
2023/12/07 07:55:29;;;;;;;234.88;104.18;;;;;;;0.39;100.00;99987.38;4937740;29;20098;-84
2023/12/07 07:57:55;;;;;;;220.02;96.03;;;;;;;0.45;100.00;99994.22;4953914;29;20032;-84
2023/12/07 08:00:21;;;;;;;219.25;98.85;;;;;;;0.54;100.00;100012.13;4954197;29;20039;-84
2023/12/07 08:02:46;;;;;;;220.70;97.50;;;;;;;0.44;100.00;99985.66;4954669;29;20463;-83
2023/12/07 08:05:12;;;;;;;207.90;93.57;;;;;;;0.30;100.00;99958.38;4954209;29;20178;-83
2023/12/07 08:07:39;;;;;;;209.68;97.57;;;;;;;0.37;100.00;99976.25;4955140;29;20463;-83
2023/12/07 08:10:05;;;;;;;211.73;98.80;;;;;;;0.29;100.00;99957.47;4915500;29;20083;-83
2023/12/07 08:12:31;;;;;;;219.50;96.82;;;;;;;0.53;100.00;99992.50;4899886;29;20048;-85
2023/12/07 08:14:56;;;;;;;219.18;97.32;;;;;;;0.55;100.00;99998.50;4915710;29;20099;-85
2023/12/07 08:17:21;;;;;;;210.55;93.85;;;;;;;0.60;100.00;100006.19;4916244;29;20060;-84
2023/12/07 08:19:47;;;;;;;213.40;94.72;;;;;;;0.46;100.00;99980.53;4915519;29;20075;-85
2023/12/07 08:22:13;;;;;;;210.02;97.45;;;;;;;0.54;100.00;99988.22;4915365;29;20059;-85
2023/12/07 08:24:39;;;;;;;227.45;101.15;;;;;;;0.46;100.00;99978.84;4915642;29;20564;-85
2023/12/07 08:27:05;;;;;;;210.40;97.53;;;;;;;0.62;100.00;100015.56;4915696;29;20039;-85
2023/12/07 08:29:30;;;;;;;202.60;95.32;;;;;;;0.44;100.00;99969.44;4915716;29;20036;-84
2023/12/07 08:31:55;;;;;;;201.30;93.55;;;;;;;0.34;100.00;99960.91;4915344;29;20426;-85
2023/12/07 08:34:21;;;;;;;205.85;94.22;;;;;;;0.63;100.00;100011.28;4915668;29;20033;-84
2023/12/07 08:36:46;;;;;;;183.60;87.78;;;;;;;0.47;100.00;99982.28;4915842;29;20115;-84
2023/12/07 08:39:11;;;;;;;194.60;89.55;;;;;;;0.41;100.00;99969.44;4914789;29;20138;-85
2023/12/07 08:41:37;;;;;;;197.07;90.28;;;;;;;0.70;100.00;100007.88;4942213;28;20047;-84
2023/12/07 08:44:03;;;;;;;192.63;87.18;;;;;;;0.55;100.00;99975.44;4973421;28;20031;-85
2023/12/07 08:46:28;;;;;;;175.70;83.05;;;;;;;0.67;100.00;99997.59;4975225;28;20130;-84
2023/12/07 08:48:53;;;;;;;173.38;82.15;;;;;;;0.68;100.00;99996.78;4957611;28;20023;-84
2023/12/07 08:51:19;;;;;;;191.90;91.05;;;;;;;0.83;100.00;100014.69;4974645;28;20117;-84
2023/12/07 08:53:45;;;;;;;168.10;79.10;;;;;;;0.78;100.00;100007.88;4974660;28;20075;-84
2023/12/07 08:56:12;;;;;;;158.95;76.43;;;;;;;0.62;100.00;99973.69;4956915;28;20571;-84
2023/12/07 08:58:38;;;;;;;176.52;83.70;;;;;;;0.79;100.00;100009.56;4974818;28;20058;-84
2023/12/07 09:01:05;;;;;;;169.40;80.97;;;;;;;0.61;100.00;99977.13;4974486;28;20101;-85
2023/12/07 09:03:31;;;;;;;164.52;77.45;;;;;;;0.87;100.00;100020.66;4957161;28;20077;-85
2023/12/07 09:05:57;;;;;;;158.18;75.40;;;;;;;0.90;100.00;100020.66;4974434;28;20042;-84
2023/12/07 09:08:23;;;;;;;176.25;81.57;;;;;;;0.61;100.00;99977.97;4957171;28;20113;-84
2023/12/07 09:10:50;;;;;;;171.48;80.00;;;;;;;0.82;100.00;100014.69;4973446;28;20113;-84
2023/12/07 09:13:17;;;;;;;161.23;79.00;;;;;;;0.76;100.00;100010.44;4974001;28;20118;-84
2023/12/07 09:15:42;;;;;;;170.13;80.70;;;;;;;0.82;100.00;100019.81;4974446;28;20052;-84
2023/12/07 09:18:07;;;;;;;169.57;79.78;;;;;;;0.69;100.00;99989.06;4974167;28;20031;-84
2023/12/07 09:20:33;;;;;;;164.00;80.97;;;;;;;0.84;100.00;100020.66;4973035;28;20444;-84
2023/12/07 09:22:58;;;;;;;173.52;83.28;;;;;;;0.69;100.00;99996.75;4973088;28;20062;-84
2023/12/07 09:25:27;;;;;;;154.45;76.53;;;;;;;0.89;100.00;100024.94;4972532;28;20460;-84
2023/12/07 09:27:53;;;;;;;181.98;85.68;;;;;;;1.00;100.00;100035.19;4952172;29;20143;-85
2023/12/07 09:30:18;;;;;;;162.30;79.40;;;;;;;0.99;100.00;100041.16;4952575;29;20412;-84
2023/12/07 09:32:43;;;;;;;162.18;77.28;;;;;;;0.98;100.00;100024.09;4952131;29;20130;-85
2023/12/07 09:35:18;;;;;;;169.45;81.95;;;;;;;0.87;100.00;100011.25;4951864;29;20102;-84
2023/12/07 09:37:44;;;;;;;155.90;76.30;;;;;;;1.00;100.00;100025.78;4952023;29;20047;-85
2023/12/07 09:40:19;;;;;;;159.07;74.95;;;;;;;0.92;100.00;100009.53;4938686;28;20731;-84
2023/12/07 09:42:45;;;;;;;142.07;72.30;;;;;;;1.14;100.00;100036.03;4959273;28;20039;-83
2023/12/07 09:45:11;;;;;;;142.32;70.78;;;;;;;1.10;100.00;100020.66;4944102;28;20019;-84
2023/12/07 09:47:37;;;;;;;145.13;73.18;;;;;;;0.99;100.00;100000.97;4959161;28;20054;-84
2023/12/07 09:50:05;;;;;;;148.30;70.50;;;;;;;1.15;100.00;100034.31;4960582;28;20047;-83
2023/12/07 09:52:31;;;;;;;169.45;76.43;;;;;;;1.10;100.00;100005.25;4960615;28;20592;-84
2023/12/07 09:54:56;;;;;;;146.35;69.63;;;;;;;1.05;100.00;100002.66;4942842;28;20032;-84
2023/12/07 09:57:22;;;;;;;167.18;76.75;;;;;;;1.10;100.00;100005.25;4967083;28;20605;-83
2023/12/07 09:59:48;;;;;;;205.50;88.45;;;;;;;1.15;100.00;100012.06;4972996;28;20093;-83
2023/12/07 10:02:14;;;;;;;331.60;145.38;;;;;;;1.27;100.00;100021.44;4973293;28;20034;-84
2023/12/07 10:04:39;;;;;;;182.68;87.18;;;;;;;1.04;100.00;99987.28;4972706;28;20027;-84
2023/12/07 10:07:08;;;;;;;355.42;131.43;;;;;;;1.22;100.00;100021.47;4954813;28;20038;-84
2023/12/07 10:09:37;;;;;;;177.50;79.85;;;;;;;1.02;100.00;99989.88;4955716;28;20029;-84
2023/12/07 10:12:04;;;;;;;148.85;72.47;;;;;;;0.98;100.00;99986.47;4973012;28;20376;-84
2023/12/07 10:14:30;;;;;;;135.07;70.60;;;;;;;1.14;100.00;100015.50;4955879;28;20054;-84
2023/12/07 10:16:56;;;;;;;146.38;70.07;;;;;;;1.17;100.00;100019.75;4972777;28;20031;-83
2023/12/07 10:19:22;;;;;;;145.13;70.53;;;;;;;1.20;100.00;100030.00;4974735;28;20030;-83
2023/12/07 10:21:49;;;;;;;137.75;70.55;;;;;;;1.07;100.00;100002.69;4954464;28;20038;-83
2023/12/07 10:24:16;;;;;;;139.75;70.20;;;;;;;1.22;100.00;100018.91;4971619;28;20472;-83
2023/12/07 10:26:42;;;;;;;134.45;67.22;;;;;;;0.83;100.00;99965.97;4971848;28;20135;-84
2023/12/07 10:29:09;;;;;;;135.40;66.60;;;;;;;1.11;100.00;100022.34;4953881;28;20023;-83
2023/12/07 10:31:36;;;;;;;139.98;67.72;;;;;;;1.04;100.00;100010.38;4954252;28;20019;-83
2023/12/07 10:34:01;;;;;;;139.55;64.70;;;;;;;1.23;100.00;100033.44;4953673;28;20436;-84
2023/12/07 10:36:27;;;;;;;136.80;68.18;;;;;;;1.06;100.00;100006.13;4971910;28;20022;-84
2023/12/07 10:38:53;;;;;;;149.77;68.78;;;;;;;1.27;100.00;100036.00;4954109;28;20047;-83
2023/12/07 10:41:20;;;;;;;147.52;70.28;;;;;;;1.14;100.00;100017.22;4953944;28;20139;-83
2023/12/07 10:43:51;;;;;;;146.65;70.45;;;;;;;1.30;100.00;100034.25;4954322;28;20468;-83
2023/12/07 10:46:19;;;;;;;148.30;70.55;;;;;;;1.11;100.00;100007.81;4953940;28;20023;-83
2023/12/07 10:48:47;;;;;;;147.68;70.05;;;;;;;1.20;100.00;100036.00;4954326;28;20026;-83
2023/12/07 10:51:23;;;;;;;144.63;67.93;;;;;;;1.17;100.00;100018.03;4972050;28;20122;-83
2023/12/07 10:53:50;;;;;;;151.38;70.55;;;;;;;1.24;100.00;100029.16;4955519;28;20027;-83
2023/12/07 10:56:29;;;;;;;138.32;68.25;;;;;;;0.99;100.00;99965.06;4972768;28;20027;-83
2023/12/07 10:58:56;;;;;;;146.88;68.65;;;;;;;1.10;100.00;99995.84;4972321;28;20056;-83